Time;durP1;ratioP1;P1;durP2;ratioP2;P2;SDS_P1;SDS_P2;PMS_P1;PMS_P2;Temp;Humidity;BMP_temperature;BMP_pressure;BME280_temperature;BME280_humidity;BME280_pressure;Samples;Min_cycle;Max_cycle;Signal;HPM_P1;HPM_P2
2022/09/27 00:01:12;;;;;;;3.75;0.60;;;;;;;;;;4984948;28;20057;-63
2022/09/27 00:03:40;;;;;;;1.40;0.40;;;;;;;;;;4994527;28;20061;-64
2022/09/27 00:06:08;;;;;;;1.77;0.60;;;;;;;;;;4974560;28;20065;-53
2022/09/27 00:08:36;;;;;;;1.85;0.55;;;;;;;;;;4974421;28;20054;-55
2022/09/27 00:11:03;;;;;;;4.32;0.60;;;;;;;;;;4980419;28;20050;-59
2022/09/27 00:13:32;;;;;;;1.55;0.30;;;;;;;;;;4993740;28;20080;-65
2022/09/27 00:16:02;;;;;;;1.48;0.50;;;;;;;;;;4987367;28;20066;-65
2022/09/27 00:18:30;;;;;;;2.15;0.50;;;;;;;;;;4993765;28;20058;-63
2022/09/27 00:20:56;;;;;;;2.45;0.50;;;;;;;;;;5003178;28;20049;-65
2022/09/27 00:23:25;;;;;;;2.85;0.50;;;;;;;;;;4993205;28;20054;-66
2022/09/27 00:25:55;;;;;;;0.90;0.60;;;;;;;;;;4986611;28;20049;-63
2022/09/27 00:28:21;;;;;;;5.07;0.60;;;;;;;;;;4992935;28;20112;-65
2022/09/27 00:30:48;;;;;;;2.97;0.75;;;;;;;;;;4986271;28;20061;-63
2022/09/27 00:33:15;;;;;;;2.35;0.60;;;;;;;;;;4992394;28;20046;-57
2022/09/27 00:35:43;;;;;;;4.65;0.50;;;;;;;;;;4987466;28;20061;-58
2022/09/27 00:38:09;;;;;;;0.77;0.40;;;;;;;;;;4994715;28;20049;-54
2022/09/27 00:40:36;;;;;;;1.40;0.50;;;;;;;;;;4994715;28;20092;-60
2022/09/27 00:43:02;;;;;;;5.03;0.60;;;;;;;;;;4987714;28;20046;-64
2022/09/27 00:45:29;;;;;;;1.00;0.45;;;;;;;;;;5008955;28;20054;-60
2022/09/27 00:47:57;;;;;;;2.92;0.70;;;;;;;;;;4986603;28;20058;-61
2022/09/27 00:50:26;;;;;;;1.05;0.40;;;;;;;;;;4992829;28;20042;-59
2022/09/27 00:52:59;;;;;;;0.85;0.40;;;;;;;;;;4986566;28;20060;-67
2022/09/27 00:55:28;;;;;;;2.05;0.47;;;;;;;;;;4975060;28;20067;-61
2022/09/27 00:57:55;;;;;;;1.27;0.40;;;;;;;;;;4963940;28;20092;-64
2022/09/27 01:00:21;;;;;;;2.40;0.50;;;;;;;;;;4969821;28;20110;-64
2022/09/27 01:02:50;;;;;;;1.15;0.35;;;;;;;;;;4964169;28;20062;-58
2022/09/27 01:05:18;;;;;;;3.95;0.52;;;;;;;;;;4969621;28;20061;-66
2022/09/27 01:07:45;;;;;;;;;;;;;;;;;;4964093;28;20047;-63
2022/09/27 01:10:14;;;;;;;1.20;0.45;;;;;;;;;;4969357;28;20005;-61
2022/09/27 01:12:44;;;;;;;0.50;0.22;;;;;;;;;;4962171;28;20050;-62
2022/09/27 01:15:17;;;;;;;2.90;0.65;;;;;;;;;;4969481;28;20051;-62
2022/09/27 01:17:51;;;;;;;1.13;0.40;;;;;;;;;;4963640;28;20101;-63
2022/09/27 01:20:36;;;;;;;1.20;0.32;;;;;;;;;;4969268;28;20066;-63
2022/09/27 01:23:18;;;;;;;1.92;0.40;;;;;;;;;;4963007;28;20065;-61
2022/09/27 01:25:57;;;;;;;2.03;0.60;;;;;;;;;;4969392;28;20054;-59
2022/09/27 01:28:30;;;;;;;1.15;0.40;;;;;;;;;;4963849;28;20087;-66
2022/09/27 01:31:02;;;;;;;1.65;0.43;;;;;;;;;;4970635;28;20069;-65
2022/09/27 01:33:38;;;;;;;1.25;0.40;;;;;;;;;;4963683;28;20043;-61
2022/09/27 01:36:08;;;;;;;1.33;0.50;;;;;;;;;;4969210;28;20055;-59
2022/09/27 01:38:40;;;;;;;0.63;0.40;;;;;;;;;;4963798;28;20066;-58
2022/09/27 01:41:09;;;;;;;1.15;0.40;;;;;;;;;;4969540;28;20059;-60
2022/09/27 01:43:40;;;;;;;2.25;0.55;;;;;;;;;;4963186;28;20047;-60
2022/09/27 01:46:10;;;;;;;1.85;0.50;;;;;;;;;;4969237;28;20059;-60
2022/09/27 01:48:39;;;;;;;1.75;0.60;;;;;;;;;;4963789;28;20102;-58
2022/09/27 01:51:07;;;;;;;1.23;0.40;;;;;;;;;;4969337;28;20050;-63
2022/09/27 01:53:40;;;;;;;3.70;0.45;;;;;;;;;;4969467;28;20137;-61
2022/09/27 01:56:07;;;;;;;2.10;0.60;;;;;;;;;;4986288;28;20065;-59
2022/09/27 01:58:37;;;;;;;0.20;0.20;;;;;;;;;;4988519;28;20053;-67
2022/09/27 02:01:04;;;;;;;2.83;0.43;;;;;;;;;;4963080;28;20297;-61
2022/09/27 02:03:35;;;;;;;3.67;0.80;;;;;;;;;;4968809;28;20046;-66
2022/09/27 02:06:04;;;;;;;1.23;0.47;;;;;;;;;;4962092;28;20065;-59
2022/09/27 02:08:35;;;;;;;0.88;0.38;;;;;;;;;;4968360;28;20093;-66
2022/09/27 02:11:04;;;;;;;1.23;0.40;;;;;;;;;;4967056;28;20063;-61
2022/09/27 02:13:33;;;;;;;0.85;0.38;;;;;;;;;;4969230;28;20062;-61
2022/09/27 02:16:03;;;;;;;0.70;0.50;;;;;;;;;;4962406;28;20058;-59
2022/09/27 02:18:34;;;;;;;2.58;0.45;;;;;;;;;;4968689;28;20059;-58
2022/09/27 02:21:03;;;;;;;1.38;0.32;;;;;;;;;;4977558;28;20062;-59
2022/09/27 02:23:36;;;;;;;0.65;0.40;;;;;;;;;;4969023;28;20055;-61
2022/09/27 02:26:05;;;;;;;2.45;0.60;;;;;;;;;;4978849;28;20062;-63
2022/09/27 02:28:34;;;;;;;2.75;0.38;;;;;;;;;;4968363;28;20055;-56
2022/09/27 02:31:01;;;;;;;3.47;0.65;;;;;;;;;;4961332;28;20057;-59
2022/09/27 02:33:30;;;;;;;2.13;0.30;;;;;;;;;;4976710;28;20050;-60
2022/09/27 02:35:57;;;;;;;3.72;0.52;;;;;;;;;;4974819;28;20059;-57
2022/09/27 02:38:25;;;;;;;1.83;0.40;;;;;;;;;;4968077;28;20054;-63
2022/09/27 02:40:52;;;;;;;;;;;;;;;;;;4959089;28;20063;-56
2022/09/27 02:43:20;;;;;;;0.57;0.30;;;;;;;;;;4987332;28;19929;-62
2022/09/27 02:45:54;;;;;;;2.08;0.40;;;;;;;;;;4996566;28;20046;-65
2022/09/27 02:48:27;;;;;;;1.63;0.40;;;;;;;;;;4968112;28;20051;-65
2022/09/27 02:51:01;;;;;;;2.92;0.60;;;;;;;;;;4962495;28;20058;-59
2022/09/27 02:53:36;;;;;;;2.10;0.43;;;;;;;;;;4949128;29;20058;-66
2022/09/27 02:56:09;;;;;;;0.68;0.30;;;;;;;;;;4960309;28;20058;-63
2022/09/27 02:58:40;;;;;;;3.20;0.40;;;;;;;;;;4948634;29;20142;-60
2022/09/27 03:01:08;;;;;;;1.75;0.65;;;;;;;;;;4948013;29;20055;-60
2022/09/27 03:03:37;;;;;;;1.70;0.55;;;;;;;;;;4961096;28;20059;-59
2022/09/27 03:06:04;;;;;;;4.00;0.40;;;;;;;;;;4967272;28;20046;-65
2022/09/27 03:08:32;;;;;;;5.07;1.17;;;;;;;;;;4964528;28;20054;-58
2022/09/27 03:10:59;;;;;;;0.57;0.20;;;;;;;;;;4967343;28;20054;-56
2022/09/27 03:13:26;;;;;;;3.08;0.73;;;;;;;;;;4961176;28;20066;-59
2022/09/27 03:15:52;;;;;;;3.85;0.82;;;;;;;;;;4966851;28;20117;-62
2022/09/27 03:18:19;;;;;;;1.02;0.30;;;;;;;;;;4962554;28;20050;-58
2022/09/27 03:20:45;;;;;;;0.52;0.30;;;;;;;;;;4966248;28;20057;-56
2022/09/27 03:23:12;;;;;;;1.73;0.30;;;;;;;;;;4960935;28;20050;-62
2022/09/27 03:25:40;;;;;;;1.30;0.32;;;;;;;;;;4952847;28;20047;-59
2022/09/27 03:28:08;;;;;;;1.20;0.35;;;;;;;;;;4949366;28;20114;-57
2022/09/27 03:30:34;;;;;;;0.80;0.30;;;;;;;;;;4983654;28;20061;-60
2022/09/27 03:33:01;;;;;;;0.85;0.30;;;;;;;;;;4981345;28;20138;-61
2022/09/27 03:35:28;;;;;;;1.27;0.30;;;;;;;;;;4989988;28;20139;-63
2022/09/27 03:37:54;;;;;;;0.20;0.20;;;;;;;;;;4983189;28;20058;-57
2022/09/27 03:40:21;;;;;;;1.05;0.40;;;;;;;;;;4970913;28;20043;-58
2022/09/27 03:42:49;;;;;;;1.20;0.20;;;;;;;;;;4954498;28;20082;-58
2022/09/27 03:45:16;;;;;;;;;;;;;;;;;;4970171;28;20074;-59
2022/09/27 03:47:42;;;;;;;2.90;0.40;;;;;;;;;;4973695;28;19933;-64
2022/09/27 03:50:09;;;;;;;1.83;0.38;;;;;;;;;;4983349;28;20065;-55
2022/09/27 03:52:36;;;;;;;1.40;0.45;;;;;;;;;;4973766;28;20049;-63
2022/09/27 03:55:03;;;;;;;0.80;0.30;;;;;;;;;;4983197;28;20050;-65
2022/09/27 03:57:30;;;;;;;3.05;0.43;;;;;;;;;;4993693;28;20181;-63
2022/09/27 03:59:59;;;;;;;1.42;0.50;;;;;;;;;;4964249;28;20055;-56
2022/09/27 04:02:26;;;;;;;4.85;0.68;;;;;;;;;;4955253;29;20094;-60
2022/09/27 04:04:52;;;;;;;1.10;0.43;;;;;;;;;;4963828;28;20054;-60
2022/09/27 04:07:19;;;;;;;5.07;0.65;;;;;;;;;;4993161;28;20064;-60
2022/09/27 04:09:46;;;;;;;1.85;0.50;;;;;;;;;;4986086;28;20069;-63
2022/09/27 04:12:12;;;;;;;1.45;0.50;;;;;;;;;;4992615;28;20077;-60
2022/09/27 04:14:39;;;;;;;3.80;0.57;;;;;;;;;;4985623;28;20050;-62
2022/09/27 04:17:08;;;;;;;3.42;0.60;;;;;;;;;;4993414;28;20053;-62
2022/09/27 04:19:35;;;;;;;3.35;0.50;;;;;;;;;;4984289;28;20192;-63
2022/09/27 04:22:03;;;;;;;2.45;0.47;;;;;;;;;;4989775;28;20062;-61
2022/09/27 04:24:31;;;;;;;2.05;0.40;;;;;;;;;;4969488;28;20051;-57
2022/09/27 04:26:59;;;;;;;1.00;0.38;;;;;;;;;;4971965;28;20137;-57
2022/09/27 04:29:27;;;;;;;0.30;0.23;;;;;;;;;;4973830;28;20277;-55
2022/09/27 04:31:53;;;;;;;3.58;0.40;;;;;;;;;;4985202;28;20077;-60
2022/09/27 04:36:25;;;;;;;2.33;0.40;;;;;;;;;;4978889;28;20043;-59
2022/09/27 04:37:08;;;;;;;2.28;0.65;;;;;;;;;;4973639;28;20054;-59
2022/09/27 04:39:36;;;;;;;2.42;0.40;;;;;;;;;;4993192;28;20053;-59
2022/09/27 04:42:03;;;;;;;2.85;0.60;;;;;;;;;;4979349;28;20116;-59
2022/09/27 04:44:30;;;;;;;1.67;0.60;;;;;;;;;;4989600;28;20057;-56
2022/09/27 04:46:57;;;;;;;1.75;0.38;;;;;;;;;;4983606;28;20065;-62
2022/09/27 04:49:25;;;;;;;1.42;0.60;;;;;;;;;;4989849;28;20054;-57
2022/09/27 04:51:53;;;;;;;2.33;1.00;;;;;;;;;;4971585;28;20059;-60
2022/09/27 04:54:19;;;;;;;10.32;3.10;;;;;;;;;;4975266;28;20054;-62
2022/09/27 04:56:47;;;;;;;11.18;2.55;;;;;;;;;;4980886;28;20081;-60
2022/09/27 04:59:14;;;;;;;3.20;0.75;;;;;;;;;;4984068;28;20503;-66
2022/09/27 05:01:40;;;;;;;2.78;0.68;;;;;;;;;;4973501;28;20093;-60
2022/09/27 05:04:07;;;;;;;4.93;0.75;;;;;;;;;;4978165;28;20062;-61
2022/09/27 05:06:35;;;;;;;3.65;0.90;;;;;;;;;;4975347;28;20054;-62
2022/09/27 05:09:01;;;;;;;4.25;0.70;;;;;;;;;;4996485;28;20051;-55
2022/09/27 05:11:28;;;;;;;2.35;0.73;;;;;;;;;;4974942;28;20069;-60
2022/09/27 05:13:55;;;;;;;4.60;0.55;;;;;;;;;;4985198;28;20055;-61
2022/09/27 05:16:22;;;;;;;1.92;0.50;;;;;;;;;;4978866;28;20065;-56
2022/09/27 05:18:48;;;;;;;8.20;0.57;;;;;;;;;;4977644;28;20062;-57
2022/09/27 05:21:15;;;;;;;2.35;0.57;;;;;;;;;;4997052;28;20066;-58
2022/09/27 05:23:43;;;;;;;2.55;0.73;;;;;;;;;;4970185;28;20059;-59
2022/09/27 05:26:10;;;;;;;1.45;0.60;;;;;;;;;;4990285;28;20054;-56
2022/09/27 05:28:37;;;;;;;1.95;0.60;;;;;;;;;;4977832;28;20122;-59
2022/09/27 05:31:04;;;;;;;4.00;1.23;;;;;;;;;;4974817;28;20118;-57
2022/09/27 05:33:33;;;;;;;8.45;2.55;;;;;;;;;;4976512;28;20058;-57
2022/09/27 05:36:00;;;;;;;4.32;1.13;;;;;;;;;;4973719;28;20146;-61
2022/09/27 05:38:27;;;;;;;3.85;0.70;;;;;;;;;;4975918;28;20066;-60
2022/09/27 05:40:55;;;;;;;1.70;0.55;;;;;;;;;;4984998;28;20058;-63
2022/09/27 05:43:24;;;;;;;2.90;0.90;;;;;;;;;;4969137;28;20120;-65
2022/09/27 05:45:51;;;;;;;1.77;0.68;;;;;;;;;;4988637;28;20050;-60
2022/09/27 05:48:18;;;;;;;1.77;0.68;;;;;;;;;;4982170;28;20073;-65
2022/09/27 05:50:45;;;;;;;11.80;0.80;;;;;;;;;;4988069;28;20054;-63
2022/09/27 05:53:12;;;;;;;0.80;0.50;;;;;;;;;;4982103;28;20050;-62
2022/09/27 05:55:38;;;;;;;1.65;0.70;;;;;;;;;;4972406;28;20059;-59
2022/09/27 05:58:07;;;;;;;2.25;0.70;;;;;;;;;;4966027;28;20057;-65
2022/09/27 06:00:34;;;;;;;;;;;;;;;;;;4967283;28;20042;-55
2022/09/27 06:03:06;;;;;;;3.38;0.50;;;;;;;;;;4968420;28;19926;-60
2022/09/27 06:05:35;;;;;;;5.85;0.50;;;;;;;;;;4962149;28;20078;-61
2022/09/27 06:08:03;;;;;;;2.05;0.57;;;;;;;;;;4967495;28;20051;-60
2022/09/27 06:10:30;;;;;;;4.90;0.57;;;;;;;;;;4961586;28;20061;-58
2022/09/27 06:13:00;;;;;;;1.15;0.50;;;;;;;;;;4967461;28;20055;-54
2022/09/27 06:15:28;;;;;;;2.95;0.60;;;;;;;;;;4957855;28;20117;-63
2022/09/27 06:17:55;;;;;;;2.72;0.52;;;;;;;;;;4966709;28;20066;-58
2022/09/27 06:20:22;;;;;;;4.55;0.40;;;;;;;;;;4962575;28;20055;-57
2022/09/27 06:22:49;;;;;;;1.15;0.57;;;;;;;;;;4967867;28;20118;-58
2022/09/27 06:25:15;;;;;;;0.68;0.47;;;;;;;;;;4945375;28;20050;-56
2022/09/27 06:27:42;;;;;;;4.85;0.60;;;;;;;;;;4967475;28;20075;-60
2022/09/27 06:30:11;;;;;;;1.08;0.60;;;;;;;;;;4960797;28;20086;-56
2022/09/27 06:32:39;;;;;;;1.52;0.47;;;;;;;;;;4966852;28;20046;-60
2022/09/27 06:35:06;;;;;;;3.40;0.47;;;;;;;;;;4960815;28;20058;-57
2022/09/27 06:37:33;;;;;;;3.15;0.50;;;;;;;;;;4966711;28;20054;-58
2022/09/27 06:40:01;;;;;;;0.80;0.30;;;;;;;;;;4960785;28;20058;-55
2022/09/27 06:42:29;;;;;;;2.13;0.50;;;;;;;;;;4967535;28;20055;-63
2022/09/27 06:44:56;;;;;;;1.23;0.40;;;;;;;;;;4964911;28;20066;-56
2022/09/27 06:47:22;;;;;;;2.08;0.60;;;;;;;;;;4966232;28;20046;-56
2022/09/27 06:49:50;;;;;;;6.82;1.45;;;;;;;;;;4967424;28;20074;-55
2022/09/27 06:52:18;;;;;;;2.72;1.10;;;;;;;;;;4961915;28;20051;-56
2022/09/27 06:54:44;;;;;;;5.10;1.17;;;;;;;;;;4975542;28;20065;-55
2022/09/27 07:00:22;;;;;;;1.27;0.43;;;;;;;;;;4966254;28;20069;-59
2022/09/27 07:02:45;;;;;;;1.42;0.63;;;;;;;;;;4962138;28;20101;-53
2022/09/27 07:05:13;;;;;;;1.42;0.68;;;;;;;;;;4967633;28;20098;-61
2022/09/27 07:07:41;;;;;;;1.00;0.50;;;;;;;;;;4961579;28;20106;-55
2022/09/27 07:10:08;;;;;;;1.98;0.50;;;;;;;;;;4968051;28;20054;-56
2022/09/27 07:12:35;;;;;;;3.92;0.60;;;;;;;;;;4989632;28;20050;-62
2022/09/27 07:15:02;;;;;;;1.65;0.55;;;;;;;;;;4987248;28;20148;-63
2022/09/27 07:17:28;;;;;;;4.57;0.50;;;;;;;;;;4977126;28;20069;-65
2022/09/27 07:19:55;;;;;;;1.25;0.50;;;;;;;;;;4967413;28;20065;-62
2022/09/27 07:22:24;;;;;;;2.53;0.68;;;;;;;;;;4968628;28;20147;-59
2022/09/27 07:24:51;;;;;;;1.35;0.40;;;;;;;;;;4986453;28;20058;-65
2022/09/27 07:27:17;;;;;;;2.78;0.40;;;;;;;;;;4978657;28;20050;-63
2022/09/27 07:29:44;;;;;;;2.90;0.63;;;;;;;;;;4987352;28;20043;-63
2022/09/27 07:32:11;;;;;;;5.28;0.68;;;;;;;;;;4976292;28;20046;-60
2022/09/27 07:34:37;;;;;;;3.08;0.60;;;;;;;;;;4967011;28;20051;-61
2022/09/27 07:37:04;;;;;;;2.67;0.50;;;;;;;;;;4961003;28;20058;-58
2022/09/27 07:39:32;;;;;;;0.85;0.30;;;;;;;;;;4966777;28;20101;-60
2022/09/27 07:41:59;;;;;;;4.32;0.50;;;;;;;;;;4967105;28;20051;-59
2022/09/27 07:44:26;;;;;;;1.60;0.60;;;;;;;;;;4977966;28;20065;-62
2022/09/27 07:46:52;;;;;;;2.22;0.50;;;;;;;;;;4986654;28;20084;-58
2022/09/27 07:49:19;;;;;;;1.55;0.30;;;;;;;;;;4979720;28;20054;-61
2022/09/27 07:51:46;;;;;;;0.70;0.50;;;;;;;;;;4986540;28;20058;-66
2022/09/27 07:54:12;;;;;;;1.48;0.50;;;;;;;;;;4967912;28;20061;-62
2022/09/27 07:56:40;;;;;;;1.42;0.50;;;;;;;;;;4966906;28;20077;-62
2022/09/27 07:59:07;;;;;;;4.18;1.10;;;;;;;;;;4961744;28;20058;-62
2022/09/27 08:01:34;;;;;;;4.20;0.98;;;;;;;;;;4967716;28;20054;-64
2022/09/27 08:04:01;;;;;;;2.53;0.90;;;;;;;;;;4960855;28;20159;-63
2022/09/27 08:06:28;;;;;;;0.75;0.47;;;;;;;;;;4966966;28;20069;-61
2022/09/27 08:08:54;;;;;;;2.65;0.70;;;;;;;;;;4960990;28;20062;-59
2022/09/27 08:11:22;;;;;;;2.00;0.60;;;;;;;;;;4967108;28;20065;-60
2022/09/27 08:13:51;;;;;;;3.53;0.60;;;;;;;;;;4961086;28;20065;-64
2022/09/27 08:16:18;;;;;;;3.47;0.80;;;;;;;;;;4967428;28;20055;-63
2022/09/27 08:18:46;;;;;;;1.05;0.70;;;;;;;;;;4960547;28;20062;-57
2022/09/27 08:21:12;;;;;;;4.55;0.80;;;;;;;;;;4971241;28;20055;-65
2022/09/27 08:23:39;;;;;;;0.68;0.50;;;;;;;;;;4971007;28;20151;-64
2022/09/27 08:26:06;;;;;;;2.40;0.65;;;;;;;;;;4964511;28;20066;-61
2022/09/27 08:28:32;;;;;;;4.03;0.55;;;;;;;;;;4970755;28;20057;-56
2022/09/27 08:31:00;;;;;;;1.90;0.60;;;;;;;;;;4964115;28;20066;-64
2022/09/27 08:33:27;;;;;;;2.47;0.63;;;;;;;;;;4971039;28;20059;-63
2022/09/27 08:35:54;;;;;;;2.03;0.70;;;;;;;;;;4964844;28;20046;-57
2022/09/27 08:38:21;;;;;;;2.00;0.68;;;;;;;;;;4970224;28;20281;-59
2022/09/27 08:40:53;;;;;;;3.33;0.90;;;;;;;;;;4964798;28;20059;-66
2022/09/27 08:43:23;;;;;;;2.78;0.60;;;;;;;;;;4969999;28;20082;-59
2022/09/27 08:45:55;;;;;;;2.15;0.60;;;;;;;;;;4963431;28;20057;-67
2022/09/27 08:48:25;;;;;;;1.00;0.68;;;;;;;;;;4970170;28;20054;-64
2022/09/27 08:50:52;;;;;;;3.25;0.50;;;;;;;;;;4965834;28;20054;-67
2022/09/27 08:53:22;;;;;;;1.40;0.50;;;;;;;;;;4971624;28;20059;-61
2022/09/27 08:55:49;;;;;;;0.90;0.52;;;;;;;;;;4980457;28;20128;-69
2022/09/27 08:58:20;;;;;;;1.25;0.45;;;;;;;;;;4989382;28;20050;-57
2022/09/27 09:00:50;;;;;;;3.80;0.65;;;;;;;;;;4983086;28;20161;-63
2022/09/27 09:03:18;;;;;;;2.47;0.60;;;;;;;;;;4989518;28;20062;-60
2022/09/27 09:05:52;;;;;;;1.63;1.00;;;;;;;;;;4983366;28;20100;-68
2022/09/27 09:08:31;;;;;;;1.52;0.60;;;;;;;;;;4989565;28;20141;-64
2022/09/27 09:14:06;;;;;;;1.45;0.50;;;;;;;;;;4988594;28;20061;-65
2022/09/27 09:16:41;;;;;;;1.17;0.43;;;;;;;;;;4983072;28;20070;-61
2022/09/27 09:19:15;;;;;;;2.95;0.73;;;;;;;;;;4989636;28;20062;-62
2022/09/27 09:21:48;;;;;;;2.55;0.82;;;;;;;;;;4984332;28;20057;-63
2022/09/27 09:24:23;;;;;;;1.75;0.60;;;;;;;;;;4989452;28;20113;-64
2022/09/27 09:26:52;;;;;;;7.07;2.25;;;;;;;;;;4985784;28;20054;-67
2022/09/27 09:29:26;;;;;;;3.45;1.00;;;;;;;;;;4989051;28;20050;-67
2022/09/27 09:31:57;;;;;;;1.63;0.73;;;;;;;;;;4982249;28;20141;-60
2022/09/27 09:34:26;;;;;;;3.20;1.20;;;;;;;;;;4988579;28;20065;-60
2022/09/27 09:36:57;;;;;;;7.40;0.70;;;;;;;;;;4982807;28;20061;-58
2022/09/27 09:39:26;;;;;;;1.55;0.50;;;;;;;;;;4988734;28;20058;-67
2022/09/27 09:41:59;;;;;;;3.40;0.60;;;;;;;;;;4983733;28;20138;-62
2022/09/27 09:44:28;;;;;;;1.35;0.50;;;;;;;;;;4984163;28;20054;-59
2022/09/27 09:46:56;;;;;;;1.35;0.35;;;;;;;;;;4998035;28;20053;-61
2022/09/27 09:49:25;;;;;;;0.75;0.40;;;;;;;;;;4996424;28;20046;-64
2022/09/27 09:51:57;;;;;;;1.60;0.50;;;;;;;;;;4988808;28;20061;-62
2022/09/27 09:54:27;;;;;;;4.60;0.60;;;;;;;;;;4981924;28;20046;-67
2022/09/27 09:56:59;;;;;;;0.93;0.40;;;;;;;;;;4989899;28;20050;-58
2022/09/27 09:59:29;;;;;;;4.60;0.65;;;;;;;;;;4965611;28;20145;-59
2022/09/27 10:02:00;;;;;;;2.83;0.70;;;;;;;;;;4968926;28;20186;-57
2022/09/27 10:04:27;;;;;;;4.82;0.73;;;;;;;;;;4975986;28;20153;-68
2022/09/27 10:06:57;;;;;;;3.25;0.60;;;;;;;;;;4988251;28;20050;-60
2022/09/27 10:09:25;;;;;;;1.65;0.43;;;;;;;;;;4969309;28;20061;-66
2022/09/27 10:11:52;;;;;;;0.93;0.50;;;;;;;;;;4968391;28;20054;-67
2022/09/27 10:14:20;;;;;;;0.95;0.52;;;;;;;;;;4981395;28;20046;-58
2022/09/27 10:16:48;;;;;;;2.47;0.50;;;;;;;;;;4987556;28;20053;-59
2022/09/27 10:19:17;;;;;;;1.23;0.50;;;;;;;;;;4981673;28;20054;-67
2022/09/27 10:21:46;;;;;;;5.53;0.75;;;;;;;;;;4988237;28;20074;-56
2022/09/27 10:24:15;;;;;;;3.08;0.47;;;;;;;;;;4975265;28;20058;-68
2022/09/27 10:26:43;;;;;;;4.22;0.60;;;;;;;;;;4968526;28;20157;-65
2022/09/27 10:29:16;;;;;;;0.85;0.43;;;;;;;;;;4977334;28;20074;-64
2022/09/27 10:31:46;;;;;;;1.90;0.70;;;;;;;;;;4968910;28;20065;-61
2022/09/27 10:34:18;;;;;;;1.67;0.40;;;;;;;;;;4980948;28;20148;-65
2022/09/27 10:36:44;;;;;;;0.75;0.40;;;;;;;;;;4988351;28;20050;-69
2022/09/27 10:39:20;;;;;;;0.82;0.30;;;;;;;;;;4967851;28;20051;-65
2022/09/27 10:41:48;;;;;;;0.28;0.28;;;;;;;;;;4950217;28;20051;-64
2022/09/27 10:44:25;;;;;;;1.02;0.30;;;;;;;;;;4945887;28;20055;-66
2022/09/27 10:46:54;;;;;;;1.85;0.38;;;;;;;;;;4948990;28;20122;-61
2022/09/27 10:49:22;;;;;;;2.20;0.40;;;;;;;;;;4964717;28;20098;-58
2022/09/27 10:51:50;;;;;;;0.45;0.40;;;;;;;;;;4996344;28;20088;-57
2022/09/27 10:54:17;;;;;;;;;;;;;;;;;;4988252;28;20125;-58
2022/09/27 10:56:45;;;;;;;2.55;0.77;;;;;;;;;;4964897;28;19926;-62
2022/09/27 10:59:18;;;;;;;4.70;1.38;;;;;;;;;;4968800;28;20063;-63
2022/09/27 11:01:48;;;;;;;1.08;0.40;;;;;;;;;;4961693;28;20055;-64
2022/09/27 11:04:19;;;;;;;3.03;0.60;;;;;;;;;;4967979;28;20050;-65
2022/09/27 11:06:45;;;;;;;1.30;0.50;;;;;;;;;;4976610;28;20149;-67
2022/09/27 11:09:23;;;;;;;2.20;0.40;;;;;;;;;;4989370;28;20058;-61
2022/09/27 11:11:51;;;;;;;1.88;0.32;;;;;;;;;;4981292;28;20054;-66
2022/09/27 11:14:19;;;;;;;0.35;0.30;;;;;;;;;;4986870;28;20069;-64
2022/09/27 11:16:54;;;;;;;1.30;0.45;;;;;;;;;;4960638;28;20130;-59
2022/09/27 11:19:33;;;;;;;2.67;0.90;;;;;;;;;;4927992;29;20055;-65
2022/09/27 11:22:07;;;;;;;3.15;0.80;;;;;;;;;;4929208;28;20051;-60
2022/09/27 11:24:44;;;;;;;1.77;0.75;;;;;;;;;;4964445;28;20117;-67
2022/09/27 11:27:19;;;;;;;3.53;0.88;;;;;;;;;;4940667;28;20059;-69
2022/09/27 11:29:50;;;;;;;1.95;0.75;;;;;;;;;;4932378;29;20055;-67
2022/09/27 11:32:22;;;;;;;3.00;0.60;;;;;;;;;;4950949;28;20055;-69
2022/09/27 11:35:03;;;;;;;0.75;0.40;;;;;;;;;;4965899;28;20051;-65
2022/09/27 11:37:33;;;;;;;2.42;0.60;;;;;;;;;;4932949;28;20055;-62
2022/09/27 11:40:13;;;;;;;1.35;0.55;;;;;;;;;;4932258;29;20050;-69
2022/09/27 11:42:52;;;;;;;1.27;0.38;;;;;;;;;;4936937;28;20051;-66
2022/09/27 11:45:23;;;;;;;1.30;0.38;;;;;;;;;;4947622;28;20054;-68
2022/09/27 11:47:56;;;;;;;1.13;0.40;;;;;;;;;;4935245;28;20042;-67
2022/09/27 11:50:32;;;;;;;0.80;0.60;;;;;;;;;;4953091;28;20058;-64
2022/09/27 11:53:04;;;;;;;1.23;0.40;;;;;;;;;;4935608;28;20059;-69
2022/09/27 11:55:35;;;;;;;1.85;0.40;;;;;;;;;;4944446;29;20059;-58
2022/09/27 11:58:10;;;;;;;2.53;0.60;;;;;;;;;;4960024;28;20051;-62
2022/09/27 12:00:44;;;;;;;2.30;0.40;;;;;;;;;;4969560;28;20053;-66
2022/09/27 12:03:20;;;;;;;1.08;0.30;;;;;;;;;;4963224;28;20093;-65
2022/09/27 12:05:54;;;;;;;1.33;0.32;;;;;;;;;;4969538;28;20059;-68
2022/09/27 12:08:31;;;;;;;2.45;0.50;;;;;;;;;;4971481;28;20050;-67
2022/09/27 12:11:01;;;;;;;0.63;0.50;;;;;;;;;;4977932;28;20063;-67
2022/09/27 12:13:33;;;;;;;0.98;0.40;;;;;;;;;;4970370;28;20062;-68
2022/09/27 12:15:59;;;;;;;4.68;0.40;;;;;;;;;;4959809;28;20063;-70
2022/09/27 12:18:28;;;;;;;0.68;0.50;;;;;;;;;;4960923;28;20051;-67
2022/09/27 12:20:55;;;;;;;;;;;;;;;;;;4967201;28;20059;-69
2022/09/27 12:23:24;;;;;;;3.45;0.40;;;;;;;;;;4958443;28;19926;-64
2022/09/27 12:25:53;;;;;;;1.02;0.35;;;;;;;;;;4963583;28;20069;-70
2022/09/27 12:28:19;;;;;;;;;;;;;;;;;;4947523;28;20079;-70
2022/09/27 12:30:50;;;;;;;2.38;0.30;;;;;;;;;;4961188;28;19926;-61
2022/09/27 12:33:20;;;;;;;0.70;0.30;;;;;;;;;;4966707;28;20054;-65
2022/09/27 12:35:49;;;;;;;0.28;0.22;;;;;;;;;;4945530;28;20058;-64
2022/09/27 12:38:17;;;;;;;1.05;0.30;;;;;;;;;;4951308;29;20122;-66
2022/09/27 12:40:45;;;;;;;1.07;0.40;;;;;;;;;;4958507;28;20053;-65
2022/09/27 12:43:14;;;;;;;1.00;0.30;;;;;;;;;;4970117;28;20157;-67
2022/09/27 12:45:45;;;;;;;2.25;0.70;;;;;;;;;;4963944;28;20066;-70
2022/09/27 12:48:17;;;;;;;7.32;0.60;;;;;;;;;;4970414;28;20061;-65
2022/09/27 12:50:46;;;;;;;3.00;0.30;;;;;;;;;;4964446;28;20074;-67
2022/09/27 12:53:22;;;;;;;0.45;0.28;;;;;;;;;;4970025;28;20066;-64
2022/09/27 12:55:59;;;;;;;1.83;0.32;;;;;;;;;;4963025;28;20046;-68
2022/09/27 12:58:41;;;;;;;0.63;0.30;;;;;;;;;;4969266;28;20058;-60
2022/09/27 13:01:13;;;;;;;1.17;0.30;;;;;;;;;;4963491;28;20062;-65
2022/09/27 13:03:54;;;;;;;0.55;0.17;;;;;;;;;;4969725;28;20129;-63
2022/09/27 13:06:35;;;;;;;6.65;2.13;;;;;;;;;;4946222;28;20062;-71
2022/09/27 13:09:18;;;;;;;4.47;1.80;;;;;;;;;;4970012;28;20066;-55
2022/09/27 13:11:49;;;;;;;1.45;0.93;;;;;;;;;;4948264;28;20055;-66
2022/09/27 13:14:17;;;;;;;1.77;0.93;;;;;;;;;;4950473;29;20117;-67
2022/09/27 13:16:45;;;;;;;5.28;1.80;;;;;;;;;;4957317;28;20069;-67
2022/09/27 13:19:36;;;;;;;2.13;1.00;;;;;;;;;;4970087;28;20193;-72
2022/09/27 13:22:05;;;;;;;1.02;0.68;;;;;;;;;;4978845;28;20058;-69
2022/09/27 13:24:40;;;;;;;0.52;0.38;;;;;;;;;;4970001;28;20061;-59
2022/09/27 13:27:34;;;;;;;1.33;0.38;;;;;;;;;;4963330;28;20057;-64
2022/09/27 13:30:19;;;;;;;1.35;0.47;;;;;;;;;;4968747;28;20054;-60
2022/09/27 13:33:15;;;;;;;1.23;0.50;;;;;;;;;;4962872;28;20082;-64
2022/09/27 13:35:43;;;;;;;2.17;0.45;;;;;;;;;;4969053;28;20058;-66
2022/09/27 13:38:21;;;;;;;3.75;0.50;;;;;;;;;;4962816;28;20133;-58
2022/09/27 13:40:48;;;;;;;1.50;0.50;;;;;;;;;;4968997;28;20065;-64
2022/09/27 13:43:33;;;;;;;2.15;0.65;;;;;;;;;;4963159;28;20069;-58
2022/09/27 13:46:03;;;;;;;2.35;0.50;;;;;;;;;;4969237;28;20083;-58
2022/09/27 13:48:32;;;;;;;3.30;0.77;;;;;;;;;;4963275;28;20109;-65
2022/09/27 13:51:01;;;;;;;1.05;0.70;;;;;;;;;;4969244;28;20047;-62
2022/09/27 13:53:31;;;;;;;2.60;0.43;;;;;;;;;;4962917;28;20058;-61
2022/09/27 13:55:58;;;;;;;1.50;0.63;;;;;;;;;;4968780;28;20054;-56
2022/09/27 13:58:39;;;;;;;1.58;0.50;;;;;;;;;;4962484;28;20067;-57
2022/09/27 14:01:11;;;;;;;0.50;0.50;;;;;;;;;;4968339;28;20055;-68
2022/09/27 14:03:42;;;;;;;2.15;0.57;;;;;;;;;;4962419;28;20055;-62
2022/09/27 14:06:13;;;;;;;3.20;0.50;;;;;;;;;;4967871;28;20050;-67
2022/09/27 14:08:43;;;;;;;4.22;0.47;;;;;;;;;;4963012;28;20059;-64
2022/09/27 14:11:12;;;;;;;0.82;0.30;;;;;;;;;;4968754;28;20047;-68
2022/09/27 14:13:38;;;;;;;;;;;;;;;;;;4963392;28;20062;-63
2022/09/27 14:16:06;;;;;;;5.15;0.38;;;;;;;;;;4968447;28;19925;-68
2022/09/27 14:18:34;;;;;;;2.25;0.50;;;;;;;;;;4962678;28;20054;-66
2022/09/27 14:21:11;;;;;;;0.60;0.30;;;;;;;;;;4968469;28;20063;-61
2022/09/27 14:23:38;;;;;;;0.50;0.30;;;;;;;;;;4962805;28;20058;-64
2022/09/27 14:26:06;;;;;;;1.20;0.55;;;;;;;;;;4968084;28;20059;-63
2022/09/27 14:28:41;;;;;;;1.38;0.35;;;;;;;;;;4962288;28;20110;-63
2022/09/27 14:31:12;;;;;;;1.08;0.52;;;;;;;;;;4969283;28;20058;-57
2022/09/27 14:33:38;;;;;;;1.00;0.40;;;;;;;;;;4962732;28;20058;-63
2022/09/27 14:38:53;;;;;;;1.88;0.40;;;;;;;;;;4962352;28;20058;-64
2022/09/27 14:41:20;;;;;;;1.30;0.50;;;;;;;;;;4967690;28;20055;-64
2022/09/27 14:43:49;;;;;;;1.38;0.60;;;;;;;;;;4962300;28;20050;-65
2022/09/27 14:46:15;;;;;;;;;;;;;;;;;;4968368;28;20051;-61
2022/09/27 14:48:42;;;;;;;1.13;0.43;;;;;;;;;;4975969;28;19926;-62
2022/09/27 14:51:18;;;;;;;1.42;0.60;;;;;;;;;;4963363;28;20050;-61
2022/09/27 14:53:46;;;;;;;0.98;0.52;;;;;;;;;;4968191;28;20067;-65
2022/09/27 14:56:16;;;;;;;1.45;0.30;;;;;;;;;;4949774;28;20114;-64
2022/09/27 14:58:45;;;;;;;0.70;0.50;;;;;;;;;;4961363;28;20047;-65
2022/09/27 15:01:15;;;;;;;2.90;0.52;;;;;;;;;;4958735;28;20055;-66
2022/09/27 15:03:41;;;;;;;1.02;0.45;;;;;;;;;;4963586;28;20154;-61
2022/09/27 15:06:09;;;;;;;1.27;0.40;;;;;;;;;;4951778;28;20061;-60
2022/09/27 15:08:36;;;;;;;1.93;0.60;;;;;;;;;;4974673;28;20059;-61